createdAt,value
2022-10-21T00:00:31.982Z,107.75
2022-10-21T00:03:03.904Z,142.25
2022-10-21T00:05:36.029Z,46.75
2022-10-21T00:08:10.836Z,149.50
2022-10-21T00:10:42.410Z,95.50
2022-10-21T00:13:15.693Z,45.20
2022-10-21T00:15:48.885Z,140.00
2022-10-21T00:18:23.310Z,63.75
2022-10-21T00:20:55.145Z,106.67
2022-10-21T00:23:27.569Z,135.75
2022-10-21T00:26:02.597Z,91.00
2022-10-21T00:28:38.060Z,109.00
2022-10-21T00:31:13.318Z,100.67
2022-10-21T00:33:46.057Z,116.25
2022-10-21T00:36:17.931Z,123.50
2022-10-21T00:38:51.699Z,172.33
2022-10-21T00:41:26.056Z,71.40
2022-10-21T00:44:03.049Z,138.00
2022-10-21T00:46:47.317Z,72.50
2022-10-21T00:49:27.594Z,82.00
2022-10-21T00:52:03.631Z,92.00
2022-10-21T00:54:39.748Z,116.00
2022-10-21T00:57:12.610Z,94.25
2022-10-21T00:59:49.336Z,121.50
2022-10-21T01:02:23.193Z,142.50
2022-10-21T01:04:58.128Z,88.75
2022-10-21T01:07:34.421Z,58.25
2022-10-21T01:10:13.219Z,78.50
2022-10-21T01:12:59.790Z,65.50
2022-10-21T01:15:43.087Z,66.75
2022-10-21T01:18:26.601Z,58.75
2022-10-21T01:21:24.863Z,56.00
2022-10-21T01:24:37.311Z,59.25
2022-10-21T01:27:39.424Z,52.00
2022-10-21T01:30:36.839Z,50.00
2022-10-21T01:33:33.851Z,62.00
2022-10-21T01:36:13.304Z,65.00
2022-10-21T01:38:51.327Z,67.00
2022-10-21T01:41:32.919Z,67.50
2022-10-21T01:44:12.307Z,64.50
2022-10-21T01:46:50.508Z,62.00
2022-10-21T01:49:32.260Z,64.25
2022-10-21T01:52:06.382Z,63.00
2022-10-21T01:54:45.152Z,70.67
2022-10-21T01:57:23.530Z,72.67
2022-10-21T02:00:03.997Z,67.50
2022-10-21T02:02:42.752Z,72.75
2022-10-21T02:05:21.011Z,73.00
2022-10-21T02:07:55.509Z,70.00
2022-10-21T02:10:35.503Z,73.00
2022-10-21T02:13:12.973Z,70.00
2022-10-21T02:15:46.795Z,77.25
2022-10-21T02:18:25.595Z,72.00
2022-10-21T02:21:03.362Z,72.00
2022-10-21T02:23:43.188Z,75.25
2022-10-21T02:26:16.522Z,75.00
2022-10-21T02:28:52.365Z,70.00
2022-10-21T02:31:49.321Z,75.75
2022-10-21T02:34:31.983Z,76.75
2022-10-21T02:37:18.057Z,78.00
2022-10-21T02:40:00.124Z,85.50
2022-10-21T02:42:40.175Z,104.60
2022-10-21T02:45:13.699Z,96.75
2022-10-21T02:47:49.678Z,126.00
2022-10-21T02:50:26.703Z,96.75
2022-10-21T02:53:01.724Z,96.75
2022-10-21T02:55:33.942Z,94.67
2022-10-21T02:58:06.168Z,104.00
2022-10-21T03:00:38.851Z,98.75
2022-10-21T03:03:11.496Z,93.50
2022-10-21T03:05:45.309Z,92.67
2022-10-21T03:08:20.200Z,97.00
2022-10-21T03:10:55.588Z,99.33
2022-10-21T03:13:31.005Z,88.00
2022-10-21T03:16:04.113Z,82.67
2022-10-21T03:18:36.645Z,79.00
2022-10-21T03:21:12.559Z,82.00
2022-10-21T03:23:47.146Z,76.00
2022-10-21T03:26:22.332Z,79.67
2022-10-21T03:28:57.657Z,82.00
2022-10-21T03:31:32.830Z,81.33
2022-10-21T03:34:07.406Z,81.33
2022-10-21T03:36:43.639Z,95.00
2022-10-21T03:39:16.269Z,107.75
2022-10-21T03:41:51.202Z,128.25
2022-10-21T03:44:26.384Z,175.25
2022-10-21T03:46:58.528Z,101.20
2022-10-21T03:49:33.172Z,103.50
2022-10-21T03:52:12.128Z,91.33
2022-10-21T03:54:47.670Z,106.80
2022-10-21T03:57:21.286Z,93.00
2022-10-21T03:59:53.637Z,145.20
2022-10-21T04:02:29.113Z,95.00
2022-10-21T04:05:04.191Z,107.50
2022-10-21T04:07:41.734Z,96.25
2022-10-21T04:10:16.590Z,87.67
2022-10-21T04:12:48.731Z,214.80
2022-10-21T04:15:25.047Z,221.00
2022-10-21T04:17:59.688Z,231.25
2022-10-21T04:20:31.893Z,88.75
2022-10-21T04:23:08.921Z,83.00
2022-10-21T04:25:47.118Z,82.00
2022-10-21T04:28:21.840Z,82.33
2022-10-21T04:30:57.520Z,76.00
2022-10-21T04:33:29.397Z,72.00
2022-10-21T04:36:05.530Z,73.00
2022-10-21T04:38:42.124Z,69.50
2022-10-21T04:41:18.927Z,89.00
2022-10-21T04:44:01.185Z,93.67
2022-10-21T04:46:39.885Z,86.00
2022-10-21T04:49:11.714Z,80.33
2022-10-21T04:51:46.946Z,82.67
2022-10-21T04:54:24.595Z,93.00
2022-10-21T04:56:58.622Z,93.33
2022-10-21T04:59:33.767Z,73.67
2022-10-21T05:02:09.509Z,82.00
2022-10-21T05:04:45.155Z,77.00
2022-10-21T05:07:19.983Z,77.67
2022-10-21T05:09:56.241Z,74.00
2022-10-21T05:12:31.065Z,79.33
2022-10-21T05:15:07.243Z,74.00
2022-10-21T05:17:42.918Z,80.00
2022-10-21T05:20:18.331Z,83.33
2022-10-21T05:22:54.940Z,79.00
2022-10-21T05:25:34.171Z,74.33
2022-10-21T05:28:10.163Z,87.33
2022-10-21T05:30:45.723Z,75.67
2022-10-21T05:33:21.155Z,78.67
2022-10-21T05:36:03.999Z,67.33
2022-10-21T05:38:37.192Z,77.33
2022-10-21T05:41:13.939Z,84.00
2022-10-21T05:43:48.521Z,90.00
2022-10-21T05:46:23.627Z,81.00
2022-10-21T05:48:58.242Z,77.33
2022-10-21T05:51:30.139Z,74.00
2022-10-21T05:54:06.916Z,74.00
2022-10-21T05:56:43.989Z,76.00
2022-10-21T05:59:19.646Z,75.00
2022-10-21T06:01:54.265Z,82.33
2022-10-21T06:04:29.234Z,83.00
2022-10-21T06:07:04.051Z,71.67
2022-10-21T06:09:39.189Z,74.00
2022-10-21T06:12:15.936Z,85.00
2022-10-21T06:14:52.135Z,96.00
2022-10-21T06:17:24.608Z,82.33
2022-10-21T06:19:59.350Z,74.33
2022-10-21T06:22:31.863Z,83.00
2022-10-21T06:25:07.736Z,74.33
2022-10-21T06:27:44.325Z,77.00
2022-10-21T06:30:19.662Z,75.00
2022-10-21T06:32:55.708Z,67.25
2022-10-21T06:35:31.759Z,68.67
2022-10-21T06:38:07.357Z,69.00
2022-10-21T06:40:42.339Z,78.67
2022-10-21T06:43:18.843Z,73.00
2022-10-21T06:45:53.293Z,76.00
2022-10-21T06:48:28.847Z,69.00
2022-10-21T06:51:02.489Z,69.00
2022-10-21T06:53:38.091Z,75.00
2022-10-21T06:56:13.459Z,77.00
2022-10-21T06:58:52.207Z,77.00
2022-10-21T07:01:40.999Z,80.33
2022-10-21T07:04:24.248Z,74.33
2022-10-21T07:06:56.894Z,69.33
2022-10-21T07:09:29.144Z,75.67
2022-10-21T07:12:01.179Z,86.00
2022-10-21T07:14:35.583Z,115.40
2022-10-21T07:17:07.842Z,87.00
2022-10-21T07:19:40.720Z,83.33
2022-10-21T07:22:12.647Z,84.00
2022-10-21T07:24:44.810Z,185.80
2022-10-21T07:27:16.978Z,137.00
2022-10-21T07:29:51.874Z,103.33
2022-10-21T07:32:24.346Z,143.75
2022-10-21T07:34:56.835Z,100.33
2022-10-21T07:37:29.545Z,76.67
2022-10-21T07:40:02.351Z,62.00
2022-10-21T07:42:33.983Z,149.75
2022-10-21T07:45:07.787Z,91.00
2022-10-21T07:47:40.211Z,160.33
2022-10-21T07:50:13.638Z,168.00
2022-10-21T07:52:55.968Z,94.00
2022-10-21T07:55:36.322Z,75.33
2022-10-21T07:58:09.070Z,102.75
2022-10-21T08:00:46.997Z,110.75
2022-10-21T08:03:18.975Z,78.67
2022-10-21T08:05:51.139Z,81.25
2022-10-21T08:08:24.085Z,75.00
2022-10-21T08:10:57.243Z,65.00
2022-10-21T08:13:29.432Z,64.25
2022-10-21T08:16:02.850Z,60.00
2022-10-21T08:18:36.070Z,82.00
2022-10-21T08:21:09.717Z,76.33
2022-10-21T08:23:42.147Z,74.33
2022-10-21T08:26:17.482Z,73.33
2022-10-21T08:28:50.108Z,68.67
2022-10-21T08:31:25.907Z,74.00
2022-10-21T08:34:03.828Z,98.33
2022-10-21T08:36:36.386Z,80.67
2022-10-21T08:39:08.739Z,74.33
2022-10-21T08:42:04.893Z,70.00
2022-10-21T08:44:48.602Z,80.33
2022-10-21T08:47:39.303Z,135.75
2022-10-21T08:50:17.062Z,89.50
2022-10-21T08:52:52.444Z,114.00
2022-10-21T08:55:27.561Z,169.25
2022-10-21T08:57:59.693Z,178.50
2022-10-21T09:00:35.974Z,157.00
2022-10-21T09:03:22.338Z,100.60
2022-10-21T09:06:20.190Z,114.00
2022-10-21T09:09:04.287Z,71.00
2022-10-21T09:11:50.022Z,76.67
2022-10-21T09:15:10.357Z,71.00
2022-10-21T09:18:11.947Z,219.25
2022-10-21T09:20:59.489Z,70.50
2022-10-21T09:23:44.498Z,209.00
2022-10-21T09:26:30.965Z,49.60
2022-10-21T09:29:06.523Z,143.75
2022-10-21T09:31:38.905Z,144.50
2022-10-21T09:34:21.852Z,170.00
2022-10-21T09:36:57.333Z,170.40
2022-10-21T09:39:43.500Z,159.00
2022-10-21T09:42:35.257Z,89.50
2022-10-21T09:45:17.441Z,77.00
2022-10-21T09:47:55.031Z,75.67
2022-10-21T09:50:28.253Z,102.50
2022-10-21T09:53:11.495Z,85.50
2022-10-21T09:55:44.483Z,133.50
2022-10-21T09:58:29.271Z,119.20
2022-10-21T10:01:01.839Z,147.00
2022-10-21T10:03:37.221Z,165.00
2022-10-21T10:06:09.799Z,98.00
2022-10-21T10:08:45.717Z,74.00
2022-10-21T10:11:23.065Z,96.75
2022-10-21T10:13:56.608Z,203.80
2022-10-21T10:16:32.231Z,207.80
2022-10-21T10:19:22.279Z,208.00
2022-10-21T10:22:12.505Z,109.33
2022-10-21T10:24:46.937Z,82.75
2022-10-21T10:27:24.785Z,75.33
2022-10-21T10:30:00.179Z,118.00
2022-10-21T10:32:37.495Z,209.80
2022-10-21T10:35:24.832Z,205.67
2022-10-21T10:37:59.893Z,147.00
2022-10-21T10:40:41.027Z,87.20
2022-10-21T10:43:27.872Z,102.50
2022-10-21T10:46:03.665Z,83.00
2022-10-21T10:48:41.949Z,67.20
2022-10-21T10:51:29.588Z,43.60
2022-10-21T10:54:07.315Z,39.75
2022-10-21T10:56:47.637Z,36.00
2022-10-21T10:59:27.772Z,35.75
2022-10-21T11:02:11.603Z,35.50
2022-10-21T11:04:49.839Z,141.50
2022-10-21T11:07:31.775Z,36.75
2022-10-21T11:10:10.894Z,68.40
2022-10-21T11:12:44.114Z,13.50
2022-10-21T11:15:18.478Z,51.20
2022-10-21T11:18:07.409Z,41.60
2022-10-21T11:21:01.803Z,62.60
2022-10-21T11:24:08.688Z,88.25
2022-10-21T11:26:47.896Z,145.75
2022-10-21T11:29:44.391Z,139.00
2022-10-21T11:32:30.895Z,83.20
2022-10-21T11:35:14.601Z,62.40
2022-10-21T11:38:05.123Z,140.75
2022-10-21T11:40:43.842Z,126.25
2022-10-21T11:43:37.149Z,108.50
2022-10-21T11:46:20.218Z,159.25
2022-10-21T11:49:11.547Z,100.50
2022-10-21T11:51:55.077Z,154.33
2022-10-21T11:55:09.529Z,88.67
2022-10-21T11:57:54.961Z,58.00
2022-10-21T12:00:28.866Z,78.67
2022-10-21T12:03:21.924Z,123.00
2022-10-21T12:06:04.093Z,173.50
2022-10-21T12:08:45.226Z,190.25
2022-10-21T12:11:23.356Z,126.33
2022-10-21T12:13:59.127Z,81.00
2022-10-21T12:16:35.830Z,102.25
2022-10-21T12:19:14.321Z,81.67
2022-10-21T12:21:48.972Z,100.25
2022-10-21T12:24:31.461Z,80.00
2022-10-21T12:27:13.759Z,68.33
2022-10-21T12:30:03.209Z,60.75
2022-10-21T12:32:43.624Z,64.33
2022-10-21T12:35:27.880Z,70.00
2022-10-21T12:38:23.526Z,68.00
2022-10-21T12:41:29.345Z,69.67
2022-10-21T12:44:23.889Z,114.25
2022-10-21T12:47:02.904Z,133.40
2022-10-21T12:49:38.136Z,91.25
2022-10-21T12:52:15.608Z,70.67
2022-10-21T12:54:58.418Z,73.67
2022-10-21T12:57:34.425Z,62.00
2022-10-21T13:00:40.670Z,59.25
2022-10-21T13:03:15.188Z,67.00
2022-10-21T13:06:08.702Z,67.75
2022-10-21T13:08:56.643Z,71.33
2022-10-21T13:11:43.166Z,66.67
2022-10-21T13:14:36.134Z,67.00
2022-10-21T13:17:49.681Z,61.25
2022-10-21T13:20:56.823Z,77.33
2022-10-21T13:23:40.364Z,66.50
2022-10-21T13:26:25.619Z,67.50
2022-10-21T13:29:06.657Z,65.67
2022-10-21T13:31:39.200Z,79.67
2022-10-21T13:34:30.544Z,82.75
2022-10-21T13:37:02.803Z,93.75
2022-10-21T13:39:37.940Z,88.00
2022-10-21T13:42:18.180Z,86.33
2022-10-21T13:44:57.366Z,89.00
2022-10-21T13:47:33.394Z,87.75
2022-10-21T13:50:27.421Z,106.25
2022-10-21T13:52:59.356Z,96.33
2022-10-21T13:55:32.062Z,103.75
2022-10-21T13:58:05.587Z,216.67
2022-10-21T14:00:37.873Z,174.50
2022-10-21T14:03:10.404Z,83.75
2022-10-21T14:05:49.492Z,161.50
2022-10-21T14:08:28.934Z,63.80
2022-10-21T14:11:05.261Z,48.80
2022-10-21T14:13:39.933Z,152.00
2022-10-21T14:16:13.975Z,127.50
2022-10-21T14:18:51.490Z,125.25
2022-10-21T14:21:27.167Z,71.00
2022-10-21T14:23:59.449Z,105.75
2022-10-21T14:26:35.003Z,183.67
2022-10-21T14:29:09.129Z,148.75
2022-10-21T14:31:44.232Z,186.33
2022-10-21T14:34:28.074Z,172.00
2022-10-21T14:37:11.080Z,134.00
2022-10-21T14:39:44.709Z,204.80
2022-10-21T14:42:20.766Z,161.00
2022-10-21T14:45:01.481Z,139.80
2022-10-21T14:47:34.701Z,93.40
2022-10-21T14:50:08.532Z,199.00
2022-10-21T14:52:49.042Z,94.75
2022-10-21T14:55:30.666Z,165.67
2022-10-21T14:58:11.744Z,224.40
2022-10-21T15:00:46.530Z,235.20
2022-10-21T15:03:18.813Z,228.67
2022-10-21T15:05:50.807Z,126.00
2022-10-21T15:08:33.601Z,90.25
2022-10-21T15:11:24.890Z,114.60
2022-10-21T15:14:02.081Z,166.80
2022-10-21T15:16:36.538Z,110.50
2022-10-21T15:19:12.427Z,216.00
2022-10-21T15:21:51.523Z,130.00
2022-10-21T15:24:28.460Z,176.50
2022-10-21T15:27:02.933Z,227.50
2022-10-21T15:29:39.430Z,161.80
2022-10-21T15:32:16.676Z,236.00
2022-10-21T15:34:48.866Z,211.20
2022-10-21T15:37:21.619Z,148.75
2022-10-21T15:39:53.643Z,133.50
2022-10-21T15:42:26.378Z,241.20
2022-10-21T15:44:58.429Z,177.25
2022-10-21T15:47:33.922Z,167.00
2022-10-21T15:50:16.127Z,179.25
2022-10-21T15:52:48.219Z,176.40
2022-10-21T15:55:20.490Z,149.60
2022-10-21T15:57:53.483Z,131.50
2022-10-21T16:00:27.042Z,223.20
2022-10-21T16:03:01.862Z,195.75
2022-10-21T16:05:34.857Z,176.25
2022-10-21T16:08:07.150Z,235.50
2022-10-21T16:10:43.040Z,122.25
2022-10-21T16:13:14.885Z,240.60
2022-10-21T16:15:47.181Z,259.00
2022-10-21T16:18:20.757Z,231.25
2022-10-21T16:20:55.464Z,248.50
2022-10-21T16:23:28.319Z,216.00
2022-10-21T16:26:00.810Z,213.00
2022-10-21T16:28:32.988Z,255.50
2022-10-21T16:31:07.327Z,180.40
2022-10-21T16:33:41.129Z,170.50
2022-10-21T16:36:19.366Z,168.25
2022-10-21T16:38:52.573Z,170.75
2022-10-21T16:41:29.745Z,153.00
2022-10-21T16:44:02.535Z,183.75
2022-10-21T16:46:38.198Z,229.20
2022-10-21T16:49:16.935Z,183.50
2022-10-21T16:51:49.303Z,188.25
2022-10-21T16:54:22.504Z,101.33
2022-10-21T16:56:55.624Z,130.75
2022-10-21T16:59:28.400Z,161.25
2022-10-21T17:02:02.073Z,177.00
2022-10-21T17:04:35.505Z,185.75
2022-10-21T17:07:07.807Z,195.00
2022-10-21T17:09:39.712Z,168.60
2022-10-21T17:12:14.726Z,185.50
2022-10-21T17:14:46.752Z,248.00
2022-10-21T17:17:20.462Z,237.25
2022-10-21T17:19:54.885Z,254.50
2022-10-21T17:22:27.148Z,199.60
2022-10-21T17:24:59.238Z,238.75
2022-10-21T17:27:31.528Z,205.33
2022-10-21T17:30:03.536Z,200.50
2022-10-21T17:32:36.417Z,232.00
2022-10-21T17:35:18.544Z,234.60
2022-10-21T17:37:52.306Z,218.40
2022-10-21T17:40:26.118Z,243.75
2022-10-21T17:42:59.875Z,256.50
2022-10-21T17:45:31.825Z,241.20
2022-10-21T17:48:04.475Z,231.40
2022-10-21T17:50:40.014Z,260.75
2022-10-21T17:53:12.696Z,248.00
2022-10-21T17:55:44.620Z,189.25
2022-10-21T17:58:16.610Z,240.40
2022-10-21T18:00:49.076Z,190.75
2022-10-21T18:03:21.234Z,120.00
2022-10-21T18:05:57.024Z,72.80
2022-10-21T18:08:29.430Z,72.00
2022-10-21T18:11:02.220Z,67.40
2022-10-21T18:13:35.697Z,69.80
2022-10-21T18:16:08.838Z,58.20
2022-10-21T18:21:19.635Z,72.60
2022-10-21T18:23:54.264Z,68.20
2022-10-21T18:26:29.917Z,64.20
2022-10-21T18:29:03.624Z,65.20
2022-10-21T18:31:37.801Z,68.80
2022-10-21T18:34:11.769Z,70.00
2022-10-21T18:36:45.623Z,65.20
2022-10-21T18:39:17.828Z,74.60
2022-10-21T18:41:50.012Z,59.80
2022-10-21T18:44:22.668Z,68.80
2022-10-21T18:46:56.172Z,69.20
2022-10-21T18:49:28.695Z,66.60
2022-10-21T18:52:02.389Z,59.20
2022-10-21T18:54:35.278Z,60.40
2022-10-21T18:57:11.352Z,64.00
2022-10-21T18:59:43.389Z,73.00
2022-10-21T19:02:23.419Z,90.50
2022-10-21T19:04:58.299Z,51.20
2022-10-21T19:07:35.302Z,69.60
2022-10-21T19:10:07.900Z,64.40
2022-10-21T19:12:40.264Z,53.80
2022-10-21T19:15:13.776Z,59.00
2022-10-21T19:17:46.433Z,54.60
2022-10-21T19:20:19.299Z,75.20
2022-10-21T19:22:53.627Z,200.75
2022-10-21T19:25:26.040Z,184.00
2022-10-21T19:27:58.108Z,198.40
2022-10-21T19:30:31.305Z,225.80
2022-10-21T19:33:04.009Z,211.80
2022-10-21T19:35:35.913Z,219.40
2022-10-21T19:38:15.524Z,216.50
2022-10-21T19:40:53.977Z,216.20
2022-10-21T19:43:26.460Z,204.33
2022-10-21T19:45:59.966Z,168.00
2022-10-21T19:48:32.300Z,179.75
2022-10-21T19:51:04.587Z,94.20
2022-10-21T19:53:38.515Z,76.80
2022-10-21T19:56:11.904Z,54.60
2022-10-21T19:58:48.092Z,58.20
2022-10-21T20:01:25.095Z,72.60
2022-10-21T20:03:57.987Z,125.00
2022-10-21T20:06:32.868Z,87.60
2022-10-21T20:09:08.732Z,64.20
2022-10-21T20:11:41.656Z,85.40
2022-10-21T20:14:16.005Z,63.80
2022-10-21T20:16:51.370Z,48.80
2022-10-21T20:19:23.829Z,48.80
2022-10-21T20:21:56.206Z,59.40
2022-10-21T20:24:30.515Z,62.40
2022-10-21T20:27:02.600Z,56.20
2022-10-21T20:29:34.941Z,70.20
2022-10-21T20:32:07.337Z,61.00
2022-10-21T20:34:41.249Z,68.80
2022-10-21T20:37:13.688Z,73.00
2022-10-21T20:39:47.437Z,124.67
2022-10-21T20:42:19.508Z,114.20
2022-10-21T20:44:52.273Z,107.00
2022-10-21T20:47:27.543Z,148.00
2022-10-21T20:50:02.800Z,150.75
2022-10-21T20:52:35.222Z,155.00
2022-10-21T20:55:10.072Z,135.00
2022-10-21T20:57:42.639Z,197.75
2022-10-21T21:00:19.506Z,200.67
2022-10-21T21:02:51.781Z,178.75
2022-10-21T21:05:23.964Z,171.75
2022-10-21T21:07:56.004Z,99.00
2022-10-21T21:10:29.867Z,153.33
2022-10-21T21:13:02.265Z,212.00
2022-10-21T21:15:34.569Z,187.25
2022-10-21T21:18:13.004Z,167.80
2022-10-21T21:20:45.314Z,121.80
2022-10-21T21:23:17.798Z,52.00
2022-10-21T21:25:51.806Z,209.00
2022-10-21T21:28:24.247Z,80.80
2022-10-21T21:30:56.363Z,174.50
2022-10-21T21:33:28.683Z,150.50
2022-10-21T21:36:01.344Z,67.20
2022-10-21T21:38:35.242Z,104.00
2022-10-21T21:41:10.563Z,74.60
2022-10-21T21:43:45.167Z,89.50
2022-10-21T21:46:24.209Z,137.00
2022-10-21T21:49:00.997Z,182.67
2022-10-21T21:51:39.113Z,174.75
2022-10-21T21:54:11.428Z,192.50
2022-10-21T21:56:45.455Z,167.00
2022-10-21T21:59:17.722Z,201.00
2022-10-21T22:01:50.041Z,140.75
2022-10-21T22:04:22.119Z,163.00
2022-10-21T22:06:54.536Z,118.50
2022-10-21T22:09:28.397Z,143.75
2022-10-21T22:12:02.131Z,45.00
2022-10-21T22:14:34.859Z,167.00
2022-10-21T22:17:06.697Z,97.75
2022-10-21T22:19:39.200Z,135.33
2022-10-21T22:22:11.099Z,188.75
2022-10-21T22:24:44.271Z,160.25
2022-10-21T22:27:18.316Z,113.50
2022-10-21T22:29:50.966Z,133.00
2022-10-21T22:32:23.231Z,175.75
2022-10-21T22:34:56.083Z,172.67
2022-10-21T22:37:27.898Z,148.75
2022-10-21T22:40:00.246Z,145.00
2022-10-21T22:42:34.406Z,172.75
2022-10-21T22:45:06.633Z,172.75
2022-10-21T22:47:39.246Z,143.67
2022-10-21T22:50:12.679Z,155.40
2022-10-21T22:52:45.526Z,132.50
2022-10-21T22:55:17.990Z,154.75
2022-10-21T22:57:52.092Z,109.25
2022-10-21T23:00:24.633Z,120.00
2022-10-21T23:02:56.680Z,128.25
2022-10-21T23:05:28.931Z,152.75
2022-10-21T23:08:01.026Z,162.50
2022-10-21T23:10:33.569Z,111.50
2022-10-21T23:13:07.953Z,150.00
2022-10-21T23:15:40.433Z,148.33
2022-10-21T23:18:12.621Z,170.00
2022-10-21T23:20:45.233Z,117.00
2022-10-21T23:23:17.161Z,131.20
2022-10-21T23:25:49.577Z,139.50
2022-10-21T23:28:23.374Z,162.40
2022-10-21T23:30:56.208Z,165.20
2022-10-21T23:33:28.869Z,143.60
2022-10-21T23:36:01.084Z,100.80
2022-10-21T23:38:33.646Z,98.67
2022-10-21T23:41:06.250Z,72.00
2022-10-21T23:43:40.265Z,85.67
2022-10-21T23:46:12.386Z,90.33
2022-10-21T23:48:44.957Z,88.00
2022-10-21T23:51:17.228Z,95.67
2022-10-21T23:53:49.734Z,105.00
2022-10-21T23:56:22.531Z,107.50
2022-10-21T23:58:57.193Z,195.80
